84VA weather

Cia Headquarters Heliport
Langley, Virginia, United States

Public forecast

Using degrees Fahrenheit for public forecast. Weather courtesy of forecast.io.

METAR (pilot weather report)

Closest report is Ronald Reagan Washington National Airport, 8.1 nm (15.0 km) SE. Retrieved 2019/05/26 10:52 UTC (35 minutes ago):

KDCA 261052Z 19003KT 10SM FEW160 FEW250 22/19 A3002 RMK AO2 SLP165 T02170194 $

TAF (pilot weather forecast)

Closest forecast is Ronald Reagan Washington National Airport, 8.1 nm (15.0 km) SE. Retrieved 2019/05/26 06:34 UTC (5 hours ago):

TAF KDCA 260532Z 2606/2712 17007KT P6SM BKN080 FM260800 22005KT P6SM SCT050 FM261100 25005KT P6SM SCT250 FM261800 28008KT P6SM BKN045 FM262100 29008KT P6SM -SHRA VCTS BKN040CB FM270000 31007KT P6SM BKN060